createdAt,value
2022-11-22T00:01:00.329Z,22.50
2022-11-22T00:03:28.506Z,22.43
2022-11-22T00:05:58.382Z,20.70
2022-11-22T00:08:26.525Z,25.53
2022-11-22T00:10:54.647Z,20.50
2022-11-22T00:13:22.820Z,24.67
2022-11-22T00:16:00.489Z,21.03
2022-11-22T00:18:28.819Z,20.27
2022-11-22T00:20:58.425Z,24.83
2022-11-22T00:23:26.538Z,23.93
2022-11-22T00:25:54.708Z,21.70
2022-11-22T00:28:22.929Z,22.10
2022-11-22T00:30:51.152Z,19.83
2022-11-22T00:33:19.292Z,25.33
2022-11-22T00:35:47.719Z,24.83
2022-11-22T00:38:17.260Z,24.23
2022-11-22T00:40:45.435Z,19.00
2022-11-22T00:43:13.604Z,22.27
2022-11-22T00:45:42.765Z,24.17
2022-11-22T00:48:11.266Z,21.83
2022-11-22T00:50:39.982Z,20.87
2022-11-22T00:53:08.192Z,24.50
2022-11-22T00:55:37.843Z,22.93
2022-11-22T00:58:05.951Z,25.63
2022-11-22T01:00:34.263Z,22.33
2022-11-22T01:03:02.403Z,21.73
2022-11-22T01:05:30.495Z,19.57
2022-11-22T01:07:58.653Z,25.23
2022-11-22T01:10:26.870Z,22.23
2022-11-22T01:12:58.000Z,20.57
2022-11-22T01:15:26.660Z,22.97
2022-11-22T01:17:54.777Z,23.10
2022-11-22T01:20:23.075Z,25.13
2022-11-22T01:22:51.228Z,20.13
2022-11-22T01:25:19.485Z,21.47
2022-11-22T01:27:47.867Z,22.37
2022-11-22T01:30:17.862Z,22.70
2022-11-22T01:32:46.158Z,22.87
2022-11-22T01:35:14.227Z,21.10
2022-11-22T01:37:42.262Z,17.70
2022-11-22T01:40:12.229Z,24.13
2022-11-22T01:42:51.318Z,26.17
2022-11-22T01:45:41.987Z,25.23
2022-11-22T01:48:33.671Z,27.37
2022-11-22T01:51:06.073Z,24.63
2022-11-22T01:53:38.064Z,31.00
2022-11-22T01:56:10.209Z,31.03
2022-11-22T01:58:40.892Z,25.40
2022-11-22T02:01:10.350Z,28.30
2022-11-22T02:03:41.072Z,31.63
2022-11-22T02:06:09.295Z,25.43
2022-11-22T02:08:41.616Z,25.60
2022-11-22T02:11:11.588Z,30.83
2022-11-22T02:13:43.247Z,31.73
2022-11-22T02:16:13.297Z,26.77
2022-11-22T02:18:41.418Z,31.20
2022-11-22T02:21:09.794Z,33.17
2022-11-22T02:23:52.024Z,35.53
2022-11-22T02:26:22.582Z,29.30
2022-11-22T02:28:52.376Z,34.47
2022-11-22T02:31:38.942Z,31.80
2022-11-22T02:34:07.122Z,32.73
2022-11-22T02:36:39.631Z,33.50
2022-11-22T02:39:09.453Z,26.17
2022-11-22T02:41:39.470Z,27.23
2022-11-22T02:44:10.737Z,33.73
2022-11-22T02:46:47.794Z,29.77
2022-11-22T02:49:18.477Z,30.80
2022-11-22T02:51:47.265Z,34.67
2022-11-22T02:54:15.583Z,31.10
2022-11-22T02:56:45.162Z,32.63
2022-11-22T02:59:13.210Z,27.73
2022-11-22T03:01:41.554Z,30.67
2022-11-22T03:04:09.595Z,32.30
2022-11-22T03:06:37.636Z,31.60
2022-11-22T03:09:05.734Z,33.77
2022-11-22T03:11:33.855Z,31.50
2022-11-22T03:14:03.413Z,33.53
2022-11-22T03:16:31.940Z,32.87
2022-11-22T03:19:00.044Z,32.67
2022-11-22T03:21:28.090Z,33.77
2022-11-22T03:23:56.304Z,33.90
2022-11-22T03:26:25.133Z,40.07
2022-11-22T03:28:53.265Z,34.97
2022-11-22T03:31:22.703Z,33.80
2022-11-22T03:33:50.777Z,37.50
2022-11-22T03:36:18.777Z,36.77
2022-11-22T03:38:46.849Z,31.50
2022-11-22T03:41:14.972Z,31.93
2022-11-22T03:43:43.015Z,35.60
2022-11-22T03:46:15.648Z,37.23
2022-11-22T03:48:45.072Z,34.37
2022-11-22T03:51:13.536Z,37.00
2022-11-22T03:53:41.620Z,36.07
2022-11-22T03:56:09.714Z,37.40
2022-11-22T03:58:37.726Z,34.90
2022-11-22T04:01:05.811Z,33.10
2022-11-22T04:03:33.916Z,36.53
2022-11-22T04:06:03.363Z,41.43
2022-11-22T04:08:31.432Z,43.27
2022-11-22T04:10:59.485Z,34.27
2022-11-22T04:13:47.548Z,35.07
2022-11-22T04:16:14.609Z,35.47
2022-11-22T04:18:42.859Z,36.13
2022-11-22T04:21:29.661Z,34.97
2022-11-22T04:24:15.276Z,36.63
2022-11-22T04:26:43.297Z,36.97
2022-11-22T04:29:11.347Z,34.33
2022-11-22T04:31:56.792Z,31.90
2022-11-22T04:34:24.993Z,36.83
2022-11-22T04:36:54.530Z,33.87
2022-11-22T04:39:23.305Z,38.17
2022-11-22T04:42:13.800Z,34.53
2022-11-22T04:44:41.396Z,35.30
2022-11-22T04:47:10.041Z,34.77
2022-11-22T04:49:38.269Z,37.77
2022-11-22T04:52:24.957Z,34.60
2022-11-22T04:54:52.995Z,29.20
2022-11-22T04:57:21.028Z,33.20
2022-11-22T04:59:49.070Z,33.70
2022-11-22T05:02:17.087Z,37.73
2022-11-22T05:04:49.281Z,30.97
2022-11-22T05:07:20.286Z,36.10
2022-11-22T05:09:48.412Z,33.07
2022-11-22T05:12:16.448Z,37.23
2022-11-22T05:14:44.519Z,36.07
2022-11-22T05:17:13.589Z,29.37
2022-11-22T05:19:49.005Z,34.13
2022-11-22T05:22:38.886Z,37.93
2022-11-22T05:25:06.405Z,36.03
2022-11-22T05:27:34.390Z,31.93
2022-11-22T05:30:02.390Z,32.87
2022-11-22T05:32:31.529Z,36.13
2022-11-22T05:34:59.765Z,35.30
2022-11-22T05:37:29.335Z,37.70
2022-11-22T05:39:57.347Z,36.57
2022-11-22T05:42:25.703Z,33.33
2022-11-22T05:44:54.045Z,35.83
2022-11-22T05:47:22.058Z,38.17
2022-11-22T05:49:50.115Z,34.33
2022-11-22T05:52:18.213Z,33.67
2022-11-22T05:54:47.688Z,37.63
2022-11-22T05:57:15.724Z,35.37
2022-11-22T05:59:44.432Z,33.67
2022-11-22T06:02:15.533Z,37.93
2022-11-22T06:04:44.272Z,39.27
2022-11-22T06:07:12.497Z,40.73
2022-11-22T06:09:40.730Z,34.63
2022-11-22T06:12:10.359Z,42.20
2022-11-22T06:14:42.966Z,33.83
2022-11-22T06:17:11.401Z,35.83
2022-11-22T06:19:39.398Z,29.37
2022-11-22T06:22:07.533Z,33.80
2022-11-22T06:24:35.643Z,34.27
2022-11-22T06:27:03.655Z,34.20
2022-11-22T06:29:33.320Z,35.80
2022-11-22T06:32:03.777Z,35.70
2022-11-22T06:34:32.380Z,31.53
2022-11-22T06:37:00.410Z,30.10
2022-11-22T06:39:28.658Z,34.30
2022-11-22T06:41:57.399Z,34.67
2022-11-22T06:44:25.425Z,30.77
2022-11-22T06:46:54.902Z,30.37
2022-11-22T06:49:23.016Z,32.83
2022-11-22T06:51:51.703Z,31.10
2022-11-22T06:54:20.168Z,31.93
2022-11-22T06:56:48.338Z,32.70
2022-11-22T06:59:16.354Z,29.67
2022-11-22T07:01:44.639Z,32.87
2022-11-22T07:04:14.045Z,32.03
2022-11-22T07:06:44.187Z,26.77
2022-11-22T07:09:12.767Z,31.57
2022-11-22T07:11:41.588Z,37.33
2022-11-22T07:14:09.773Z,29.57
2022-11-22T07:16:38.815Z,31.67
2022-11-22T07:19:08.002Z,35.37
2022-11-22T07:21:38.281Z,33.03
2022-11-22T07:24:07.786Z,34.60
2022-11-22T07:26:35.842Z,30.37
2022-11-22T07:29:04.069Z,30.70
2022-11-22T07:31:32.160Z,37.30
2022-11-22T07:34:00.971Z,33.37
2022-11-22T07:36:30.384Z,35.50
2022-11-22T07:38:59.876Z,36.23
2022-11-22T07:41:27.909Z,33.07
2022-11-22T07:43:55.952Z,33.70
2022-11-22T07:46:26.325Z,38.50
2022-11-22T07:48:54.476Z,40.60
2022-11-22T07:51:22.749Z,44.43
2022-11-22T07:53:51.148Z,35.97
2022-11-22T07:56:20.594Z,35.53
2022-11-22T07:58:48.632Z,36.53
2022-11-22T08:01:18.872Z,34.80
2022-11-22T08:03:47.879Z,29.90
2022-11-22T08:06:16.664Z,34.57
2022-11-22T08:08:45.023Z,34.60
2022-11-22T08:11:13.681Z,37.87
2022-11-22T08:13:44.508Z,32.40
2022-11-22T08:16:16.219Z,39.00
2022-11-22T08:18:48.592Z,34.97
2022-11-22T08:21:18.263Z,33.27
2022-11-22T08:23:47.551Z,33.10
2022-11-22T08:26:17.456Z,36.67
2022-11-22T08:28:46.856Z,33.33
2022-11-22T08:31:16.737Z,33.70
2022-11-22T08:33:44.801Z,36.83
2022-11-22T08:36:13.178Z,41.53
2022-11-22T08:38:41.231Z,39.70
2022-11-22T08:41:09.636Z,34.53
2022-11-22T08:43:37.752Z,38.00
2022-11-22T08:46:07.845Z,36.40
2022-11-22T08:48:38.244Z,39.60
2022-11-22T08:51:08.591Z,41.20
2022-11-22T08:53:38.457Z,41.70
2022-11-22T08:56:09.642Z,37.00
2022-11-22T08:58:38.224Z,35.07
2022-11-22T09:01:08.536Z,39.13
2022-11-22T09:03:37.407Z,36.93
2022-11-22T09:09:15.081Z,34.73
2022-11-22T09:11:43.748Z,41.73
2022-11-22T09:14:11.773Z,34.60
2022-11-22T09:16:41.308Z,41.83
2022-11-22T09:19:09.759Z,37.27
2022-11-22T09:21:37.907Z,41.73
2022-11-22T09:24:06.899Z,37.60
2022-11-22T09:26:34.959Z,36.67
2022-11-22T09:29:03.056Z,38.67
2022-11-22T09:31:32.833Z,41.20
2022-11-22T09:34:02.609Z,31.50
2022-11-22T09:36:30.931Z,34.17
2022-11-22T09:38:59.513Z,36.77
2022-11-22T09:42:01.106Z,34.10
2022-11-22T09:44:39.346Z,30.83
2022-11-22T09:47:16.351Z,32.13
2022-11-22T09:49:57.829Z,39.17
2022-11-22T09:52:31.493Z,31.30
2022-11-22T09:55:02.937Z,38.17
2022-11-22T09:57:37.160Z,34.60
2022-11-22T10:00:08.935Z,37.53
2022-11-22T10:02:59.478Z,39.37
2022-11-22T10:05:34.715Z,36.53
2022-11-22T10:08:08.288Z,34.77
2022-11-22T10:10:42.898Z,36.23
2022-11-22T10:13:16.078Z,30.83
2022-11-22T10:15:51.222Z,34.97
2022-11-22T10:18:23.661Z,31.37
2022-11-22T10:20:54.476Z,30.27
2022-11-22T10:23:24.875Z,31.83
2022-11-22T10:25:58.842Z,29.50
2022-11-22T10:28:34.781Z,34.40
2022-11-22T10:31:08.816Z,31.57
2022-11-22T10:33:44.366Z,32.23
2022-11-22T10:36:27.811Z,31.03
2022-11-22T10:39:26.994Z,35.27
2022-11-22T10:42:18.077Z,31.43
2022-11-22T10:44:55.555Z,36.07
2022-11-22T10:47:43.937Z,32.23
2022-11-22T10:50:17.763Z,31.27
2022-11-22T10:52:57.815Z,34.93
2022-11-22T10:55:42.441Z,29.10
2022-11-22T10:58:21.542Z,33.17
2022-11-22T11:00:54.982Z,33.90
2022-11-22T11:03:28.410Z,31.13
2022-11-22T11:09:47.720Z,29.53
2022-11-22T11:11:46.541Z,32.33
2022-11-22T11:14:25.663Z,33.40
2022-11-22T11:16:54.629Z,31.80
2022-11-22T11:19:26.113Z,28.80
2022-11-22T11:22:01.731Z,35.87
2022-11-22T11:24:32.598Z,33.70
2022-11-22T11:27:02.041Z,30.10
2022-11-22T11:29:43.540Z,34.43
2022-11-22T11:32:13.707Z,32.67
2022-11-22T11:34:45.388Z,28.37
2022-11-22T11:37:23.777Z,35.93
2022-11-22T11:39:53.433Z,30.20
2022-11-22T11:42:24.634Z,30.97
2022-11-22T11:44:52.624Z,28.93
2022-11-22T11:47:31.970Z,29.70
2022-11-22T11:50:00.206Z,29.30
2022-11-22T11:52:29.836Z,27.40
2022-11-22T11:55:01.681Z,34.07
2022-11-22T11:57:31.892Z,29.50
2022-11-22T12:00:01.886Z,30.47
2022-11-22T12:02:36.918Z,28.17
2022-11-22T12:05:07.037Z,29.83
2022-11-22T12:07:44.259Z,28.03
2022-11-22T12:10:39.214Z,26.97
2022-11-22T12:13:17.408Z,28.13
2022-11-22T12:15:55.893Z,26.17
2022-11-22T12:18:39.803Z,31.03
2022-11-22T12:21:16.914Z,25.47
2022-11-22T12:23:51.922Z,28.57
2022-11-22T12:26:22.013Z,27.77
2022-11-22T12:28:50.685Z,28.07
2022-11-22T12:31:29.385Z,26.63
2022-11-22T12:34:01.650Z,30.43
2022-11-22T12:36:37.574Z,29.20
2022-11-22T12:39:06.584Z,31.13
2022-11-22T12:41:37.552Z,27.30
2022-11-22T12:44:11.748Z,25.53
2022-11-22T12:46:43.905Z,25.57
2022-11-22T12:49:17.913Z,28.53
2022-11-22T12:51:51.577Z,28.47
2022-11-22T12:54:24.375Z,26.87
2022-11-22T12:56:56.722Z,30.03
2022-11-22T12:59:32.978Z,26.60
2022-11-22T13:02:14.396Z,27.73
2022-11-22T13:04:50.669Z,27.30
2022-11-22T13:07:26.691Z,28.90
2022-11-22T13:10:01.678Z,28.00
2022-11-22T13:12:34.358Z,25.63
2022-11-22T13:15:03.526Z,28.23
2022-11-22T13:17:34.941Z,30.23
2022-11-22T13:20:07.943Z,24.37
2022-11-22T13:22:47.298Z,25.63
2022-11-22T13:25:37.262Z,24.77
2022-11-22T13:28:13.666Z,29.73
2022-11-22T13:31:01.907Z,28.37
2022-11-22T13:33:30.003Z,29.30
2022-11-22T13:36:23.703Z,25.83
2022-11-22T13:38:53.381Z,27.03
2022-11-22T13:41:28.922Z,28.00
2022-11-22T13:43:59.664Z,25.73
2022-11-22T13:47:02.377Z,23.47
2022-11-22T13:49:49.395Z,27.53
2022-11-22T13:52:50.276Z,26.53
2022-11-22T13:55:41.587Z,26.77
2022-11-22T13:58:52.672Z,29.23
2022-11-22T14:02:05.239Z,25.43
2022-11-22T14:04:44.792Z,26.30
2022-11-22T14:07:32.987Z,28.37
2022-11-22T14:10:03.259Z,28.07
2022-11-22T14:12:59.876Z,27.77
2022-11-22T14:15:48.698Z,29.47
2022-11-22T14:18:35.947Z,30.70
2022-11-22T14:21:07.686Z,28.80
2022-11-22T14:23:48.640Z,25.47
2022-11-22T14:26:25.314Z,27.17
2022-11-22T14:29:31.774Z,32.57
2022-11-22T14:32:04.147Z,29.50
2022-11-22T14:34:33.824Z,30.10
2022-11-22T14:37:56.765Z,29.93
2022-11-22T14:40:33.620Z,28.07
2022-11-22T14:43:28.999Z,30.37
2022-11-22T14:46:01.512Z,27.57
2022-11-22T14:48:34.728Z,29.80
2022-11-22T14:51:09.267Z,28.90
2022-11-22T14:53:42.106Z,27.27
2022-11-22T14:56:17.225Z,35.87
2022-11-22T14:58:57.788Z,27.73
2022-11-22T15:01:49.211Z,31.77
2022-11-22T15:09:11.674Z,27.43
2022-11-22T15:09:13.086Z,26.43
2022-11-22T15:11:07.717Z,33.90
2022-11-22T15:13:53.005Z,29.03
2022-11-22T15:59:44.167Z,36.43
2022-11-22T16:02:17.024Z,35.10
2022-11-22T16:06:07.120Z,31.10
2022-11-22T16:07:42.456Z,32.23
2022-11-22T16:10:20.264Z,32.17
2022-11-22T16:12:48.734Z,30.03
2022-11-22T16:15:30.489Z,34.93
2022-11-22T16:18:09.394Z,29.50
2022-11-22T16:20:38.625Z,34.67
2022-11-22T16:23:21.625Z,35.13
2022-11-22T16:25:53.882Z,33.10
2022-11-22T16:28:32.080Z,33.57
2022-11-22T16:31:04.290Z,38.10
2022-11-22T16:33:32.810Z,34.57
2022-11-22T16:36:02.282Z,33.17
2022-11-22T16:38:30.627Z,32.63
2022-11-22T16:40:59.958Z,35.87
2022-11-22T16:43:33.293Z,31.73
2022-11-22T16:46:03.031Z,36.03
2022-11-22T16:48:33.179Z,41.37
2022-11-22T16:51:05.393Z,40.00
2022-11-22T16:53:41.754Z,36.17
2022-11-22T16:56:14.368Z,36.63
2022-11-22T16:58:42.357Z,38.60
2022-11-22T17:01:14.927Z,34.33
2022-11-22T17:03:44.385Z,38.07
2022-11-22T17:06:18.327Z,38.23
2022-11-22T17:08:46.741Z,36.47
2022-11-22T17:11:17.169Z,41.83
2022-11-22T17:13:45.463Z,41.67
2022-11-22T17:16:17.653Z,39.37
2022-11-22T17:18:46.174Z,39.63
2022-11-22T17:21:18.931Z,36.67
2022-11-22T17:23:47.273Z,42.33
2022-11-22T17:26:15.236Z,44.27
2022-11-22T17:28:43.219Z,39.97
2022-11-22T17:31:16.048Z,42.87
2022-11-22T17:33:44.065Z,41.90
2022-11-22T17:36:21.965Z,37.27
2022-11-22T17:38:49.933Z,39.13
2022-11-22T17:41:19.122Z,39.27
2022-11-22T17:43:47.261Z,38.40
2022-11-22T17:46:16.619Z,39.67
2022-11-22T17:48:44.628Z,44.60
2022-11-22T17:51:13.881Z,38.97
2022-11-22T17:53:41.858Z,43.17
2022-11-22T17:56:11.802Z,42.33
2022-11-22T17:58:40.191Z,39.27
2022-11-22T18:01:09.556Z,42.93
2022-11-22T18:03:39.636Z,36.27
2022-11-22T18:06:08.470Z,36.77
2022-11-22T18:08:36.962Z,37.70
2022-11-22T18:11:06.029Z,40.43
2022-11-22T18:13:35.804Z,41.30
2022-11-22T18:16:05.436Z,37.80
2022-11-22T18:18:55.796Z,39.70
2022-11-22T18:21:24.350Z,40.73
2022-11-22T18:23:52.448Z,34.73
2022-11-22T18:31:57.180Z,36.73
2022-11-22T18:34:25.372Z,39.47
2022-11-22T18:37:00.890Z,35.60
2022-11-22T18:39:31.869Z,38.70
2022-11-22T18:42:00.151Z,38.43
2022-11-22T18:44:28.153Z,34.50
2022-11-22T18:46:56.305Z,42.87
2022-11-22T18:49:24.426Z,36.60
2022-11-22T18:51:53.842Z,38.93
2022-11-22T18:54:22.809Z,39.83
2022-11-22T18:56:50.933Z,39.70
2022-11-22T18:59:19.476Z,39.83
2022-11-22T19:01:47.526Z,38.70
2022-11-22T19:04:16.212Z,35.47
2022-11-22T19:06:45.096Z,32.70
2022-11-22T19:09:14.763Z,37.30
2022-11-22T19:11:42.710Z,39.50
2022-11-22T19:14:10.703Z,35.80
2022-11-22T19:16:38.672Z,41.63
2022-11-22T19:19:08.143Z,39.53
2022-11-22T19:21:36.117Z,38.03
2022-11-22T19:24:04.243Z,43.63
2022-11-22T19:26:33.598Z,33.10
2022-11-22T19:29:02.710Z,36.67
2022-11-22T19:31:31.501Z,43.57
2022-11-22T19:33:59.944Z,39.30
2022-11-22T19:36:36.409Z,41.33
2022-11-22T19:39:05.931Z,39.87
2022-11-22T19:41:35.576Z,39.60
2022-11-22T19:44:04.072Z,42.43
2022-11-22T19:46:32.060Z,42.23
2022-11-22T19:49:01.303Z,37.47
2022-11-22T19:51:31.020Z,40.07
2022-11-22T19:54:02.096Z,36.60
2022-11-22T19:56:33.742Z,41.17
2022-11-22T19:59:05.871Z,42.80
2022-11-22T20:01:35.686Z,41.33
2022-11-22T20:04:05.862Z,41.23
2022-11-22T20:06:35.588Z,42.30
2022-11-22T20:09:04.950Z,38.30
2022-11-22T20:11:33.131Z,38.43
2022-11-22T20:14:02.686Z,37.30
2022-11-22T20:16:31.707Z,36.80
2022-11-22T20:19:01.021Z,38.07
2022-11-22T20:21:31.408Z,41.60
2022-11-22T20:24:00.537Z,35.30
2022-11-22T20:26:29.373Z,37.50
2022-11-22T20:28:58.741Z,39.13
2022-11-22T20:31:30.198Z,33.93
2022-11-22T20:34:00.454Z,43.20
2022-11-22T20:36:30.539Z,37.37
2022-11-22T20:38:59.069Z,36.43
2022-11-22T20:41:28.659Z,42.57
2022-11-22T20:43:56.881Z,35.37
2022-11-22T20:46:27.742Z,34.27
2022-11-22T20:48:56.636Z,33.50
2022-11-22T20:51:26.270Z,36.77
2022-11-22T20:53:54.827Z,34.67
2022-11-22T20:56:23.195Z,37.40
2022-11-22T20:58:52.400Z,35.47
2022-11-22T21:01:22.309Z,40.10
2022-11-22T21:03:52.349Z,39.50
2022-11-22T21:06:22.857Z,40.90
2022-11-22T21:08:51.031Z,37.67
2022-11-22T21:11:20.749Z,41.07
2022-11-22T21:13:49.748Z,38.27
2022-11-22T21:16:23.933Z,36.00
2022-11-22T21:18:55.403Z,35.83
2022-11-22T21:21:24.330Z,33.27
2022-11-22T21:23:53.765Z,36.70
2022-11-22T21:26:22.680Z,34.50
2022-11-22T21:28:51.003Z,33.80
2022-11-22T21:31:19.789Z,39.93
2022-11-22T21:33:48.567Z,37.17
2022-11-22T21:36:17.902Z,36.97
2022-11-22T21:38:46.276Z,35.97
2022-11-22T21:41:38.906Z,35.23
2022-11-22T21:44:04.508Z,39.70
2022-11-22T21:46:32.505Z,35.00
2022-11-22T21:49:00.886Z,39.83
2022-11-22T21:51:30.234Z,38.33
2022-11-22T21:53:58.889Z,36.43
2022-11-22T21:56:27.221Z,34.43
2022-11-22T21:58:55.377Z,38.03
2022-11-22T22:01:23.673Z,41.63
2022-11-22T22:03:51.797Z,36.27
2022-11-22T22:06:20.134Z,36.80
2022-11-22T22:08:49.569Z,36.83
2022-11-22T22:11:17.704Z,39.60
2022-11-22T22:13:45.708Z,40.40
2022-11-22T22:16:18.754Z,39.53
2022-11-22T22:18:47.239Z,41.97
2022-11-22T22:21:16.386Z,35.13
2022-11-22T22:23:45.535Z,36.23
2022-11-22T22:26:16.616Z,33.97
2022-11-22T22:28:46.058Z,42.40
2022-11-22T22:31:17.223Z,43.37
2022-11-22T22:33:46.656Z,35.57
2022-11-22T22:36:15.326Z,35.13
2022-11-22T22:38:43.413Z,34.17
2022-11-22T22:41:14.337Z,34.83
2022-11-22T22:43:43.782Z,42.23
2022-11-22T22:46:13.811Z,35.97
2022-11-22T22:48:42.488Z,34.83
2022-11-22T22:51:13.879Z,40.87
2022-11-22T22:53:42.434Z,33.20
2022-11-22T22:56:11.342Z,39.53
2022-11-22T22:58:40.906Z,37.43
2022-11-22T23:01:10.197Z,37.83
2022-11-22T23:03:38.212Z,36.20
2022-11-22T23:06:07.746Z,39.50
2022-11-22T23:08:35.856Z,34.03
2022-11-22T23:11:05.510Z,38.20
2022-11-22T23:13:33.688Z,33.00
2022-11-22T23:16:03.415Z,40.30
2022-11-22T23:18:31.463Z,32.70
2022-11-22T23:21:00.470Z,35.77
2022-11-22T23:23:28.952Z,41.57
2022-11-22T23:25:57.338Z,35.23
2022-11-22T23:28:25.332Z,37.90
2022-11-22T23:30:53.497Z,36.83
2022-11-22T23:33:22.954Z,33.87
2022-11-22T23:35:50.971Z,38.80
2022-11-22T23:38:18.982Z,36.10
2022-11-22T23:40:53.937Z,35.40
2022-11-22T23:43:21.961Z,40.03
2022-11-22T23:45:49.991Z,35.63
2022-11-22T23:48:18.193Z,39.43
2022-11-22T23:50:47.602Z,42.17
2022-11-22T23:53:15.640Z,33.87
2022-11-22T23:55:43.678Z,35.33
2022-11-22T23:58:11.885Z,33.07
